Time;durP1;ratioP1;P1;durP2;ratioP2;P2;SDS_P1;SDS_P2;PMS_P1;PMS_P2;Temp;Humidity;BMP_temperature;BMP_pressure;BME280_temperature;BME280_humidity;BME280_pressure;Samples;Min_cycle;Max_cycle;Signal;HPM_P1;HPM_P2
2021/09/30 00:02:21;;;;;;;21.48;8.18;;;;;;;-144.51;100.00;69251.94;5118108;28;19911;-67
2021/09/30 00:05:07;;;;;;;13.38;7.70;;;;;;;-144.51;100.00;69251.94;5118617;28;20048;-67
2021/09/30 00:07:52;;;;;;;14.25;7.75;;;;;;;-144.51;100.00;69251.94;5107104;28;20425;-67
2021/09/30 00:10:40;;;;;;;11.70;8.23;;;;;;;-144.51;100.00;69251.94;5102749;28;20044;-66
2021/09/30 00:16:34;;;;;;;13.60;7.55;;;;;;;-144.51;100.00;69251.94;5106661;28;20036;-69
2021/09/30 00:34:56;;;;;;;23.50;7.97;;;;;;;-144.51;100.00;69251.94;5115486;28;20043;-66
2021/09/30 00:47:02;;;;;;;30.77;9.18;;;;;;;-144.51;100.00;69251.94;5102431;28;20411;-67
2021/09/30 00:49:54;;;;;;;24.00;9.95;;;;;;;-144.51;100.00;69251.94;5115161;28;20036;-66
2021/09/30 02:31:24;;;;;;;69.50;13.13;;;;;;;-144.51;100.00;69251.94;5108430;28;20043;-63
2021/09/30 02:59:16;;;;;;;6.20;4.00;;;;;;;-144.51;100.00;69251.94;5110818;28;20039;-61
2021/09/30 03:02:06;;;;;;;5.07;2.83;;;;;;;-144.51;100.00;69251.94;5115712;28;20040;-62
2021/09/30 03:04:53;;;;;;;12.50;3.22;;;;;;;-144.51;100.00;69251.94;5112699;28;20031;-62
2021/09/30 03:07:39;;;;;;;4.03;2.55;;;;;;;-144.51;100.00;69251.94;5118053;28;20040;-62
2021/09/30 03:10:25;;;;;;;4.13;2.05;;;;;;;-144.51;100.00;69251.94;5112701;28;20044;-62
2021/09/30 03:13:10;;;;;;;7.68;2.55;;;;;;;-144.51;100.00;69251.94;5098447;28;20041;-63
2021/09/30 03:19:15;;;;;;;2.95;2.10;;;;;;;-144.51;100.00;69251.94;5112967;28;20403;-62
2021/09/30 03:22:13;;;;;;;3.10;1.65;;;;;;;-144.51;100.00;69251.94;5114066;28;20035;-63
2021/09/30 03:24:59;;;;;;;4.13;2.47;;;;;;;-144.51;100.00;69251.94;5119502;28;20039;-62
2021/09/30 03:27:44;;;;;;;;;;;;;;;-144.51;100.00;69251.94;5118289;28;20430;-62
2021/09/30 03:30:30;;;;;;;6.65;1.92;;;;;;;-144.51;100.00;69251.94;5122371;28;19916;-63
2021/09/30 03:33:16;;;;;;;6.28;1.73;;;;;;;-144.51;100.00;69251.94;5120593;28;20387;-63
2021/09/30 03:36:17;;;;;;;3.97;1.95;;;;;;;-144.51;100.00;69251.94;5122377;28;20039;-63
2021/09/30 03:39:03;;;;;;;2.38;1.50;;;;;;;-144.51;100.00;69251.94;5120267;27;20495;-63
2021/09/30 03:41:48;;;;;;;;;;;;;;;-144.51;100.00;69251.94;5119082;28;20040;-63
2021/09/30 03:44:32;;;;;;;2.90;1.58;;;;;;;-144.51;100.00;69251.94;5106465;28;19911;-62
2021/09/30 03:47:20;;;;;;;2.67;1.67;;;;;;;-144.51;100.00;69251.94;5106933;28;20039;-62
2021/09/30 03:50:16;;;;;;;2.13;1.60;;;;;;;-144.51;100.00;69251.94;5120886;28;20418;-62
2021/09/30 03:53:18;;;;;;;8.20;1.85;;;;;;;-144.51;100.00;69251.94;5114558;28;20043;-63
2021/09/30 03:59:09;;;;;;;2.88;1.85;;;;;;;-144.51;100.00;69251.94;5117909;28;20040;-62
2021/09/30 04:02:02;;;;;;;2.97;1.58;;;;;;;-144.51;100.00;69251.94;5110980;28;20036;-62
2021/09/30 04:04:48;;;;;;;2.85;1.50;;;;;;;-144.51;100.00;69251.94;5122170;28;20039;-62
2021/09/30 04:07:32;;;;;;;4.18;2.35;;;;;;;-144.51;100.00;69251.94;5104500;28;20039;-61
2021/09/30 04:10:17;;;;;;;;;;;;;;;-144.51;100.00;69251.94;5096877;28;20047;-61
2021/09/30 04:13:04;;;;;;;5.57;1.60;;;;;;;-144.51;100.00;69251.94;5120531;28;20302;-61
2021/09/30 04:15:51;;;;;;;2.38;1.50;;;;;;;-144.51;100.00;69251.94;5121836;28;20039;-61
2021/09/30 04:18:35;;;;;;;2.90;1.70;;;;;;;-144.51;100.00;69251.94;5095053;28;20411;-61
2021/09/30 04:21:20;;;;;;;;;;;;;;;-144.51;100.00;69251.94;5109248;28;20403;-61
2021/09/30 04:24:05;;;;;;;2.58;1.40;;;;;;;-144.51;100.00;69251.94;5109285;28;19911;-61
2021/09/30 04:26:53;;;;;;;2.58;1.67;;;;;;;-144.51;100.00;69251.94;5121507;28;20040;-60
2021/09/30 04:29:38;;;;;;;2.75;1.83;;;;;;;-144.51;100.00;69251.94;5115233;28;20043;-60
2021/09/30 04:32:23;;;;;;;1.85;1.58;;;;;;;-144.51;100.00;69251.94;5121328;28;20483;-60
2021/09/30 04:35:08;;;;;;;6.00;1.73;;;;;;;-144.51;100.00;69251.94;5121652;28;20035;-59
2021/09/30 04:37:54;;;;;;;2.90;1.83;;;;;;;-144.51;100.00;69251.94;5113529;28;20056;-64
2021/09/30 04:40:38;;;;;;;;;;;;;;;-144.51;100.00;69251.94;5101292;28;20040;-63
2021/09/30 04:43:23;;;;;;;2.15;1.55;;;;;;;-144.51;100.00;69251.94;5095163;28;19912;-64
2021/09/30 04:46:08;;;;;;;4.07;1.98;;;;;;;-144.51;100.00;69251.94;5100698;28;20044;-63
2021/09/30 04:49:03;;;;;;;5.80;2.15;;;;;;;-144.51;100.00;69251.94;5096143;28;20040;-63
2021/09/30 04:51:48;;;;;;;4.30;2.03;;;;;;;-144.51;100.00;69251.94;5100677;28;20059;-63
2021/09/30 04:54:33;;;;;;;4.75;1.98;;;;;;;-144.51;100.00;69251.94;5106459;28;20419;-64
2021/09/30 04:57:18;;;;;;;;;;;;;;;-144.51;100.00;69251.94;5116342;28;20411;-63
2021/09/30 05:00:04;;;;;;;4.88;1.85;;;;;;;-144.51;100.00;69251.94;5120981;28;19912;-63
2021/09/30 05:03:06;;;;;;;3.78;1.98;;;;;;;-144.51;100.00;69251.94;5117582;28;20027;-63
2021/09/30 05:05:50;;;;;;;2.30;1.60;;;;;;;-144.51;100.00;69251.94;5116871;28;20491;-63
2021/09/30 05:08:35;;;;;;;2.30;1.80;;;;;;;-144.51;100.00;69251.94;5111831;28;20023;-64
2021/09/30 05:11:20;;;;;;;;;;;;;;;-144.51;100.00;69251.94;5100570;28;20040;-63
2021/09/30 05:14:06;;;;;;;2.30;1.73;;;;;;;-144.51;100.00;69251.94;5119494;28;19916;-63
2021/09/30 05:16:52;;;;;;;;;;;;;;;-144.51;100.00;69251.94;5100548;28;20043;-63
2021/09/30 05:19:57;;;;;;;2.67;1.40;;;;;;;-144.51;100.00;69251.94;5101339;28;19915;-63
2021/09/30 05:22:42;;;;;;;3.08;1.52;;;;;;;-144.51;100.00;69251.94;5099991;28;20040;-64
2021/09/30 05:25:27;;;;;;;5.13;1.50;;;;;;;-144.51;100.00;69251.94;5100074;28;20488;-63
2021/09/30 05:28:13;;;;;;;;;;;;;;;-144.51;100.00;69251.94;5109796;28;20403;-60
2021/09/30 05:30:58;;;;;;;2.60;1.50;;;;;;;-144.51;100.00;69251.94;5111270;28;19916;-60
2021/09/30 05:34:05;;;;;;;4.32;1.45;;;;;;;-144.51;100.00;69251.94;5116051;28;20040;-60
2021/09/30 05:36:53;;;;;;;6.30;1.55;;;;;;;-144.51;100.00;69251.94;5105125;27;20044;-61
2021/09/30 05:39:38;;;;;;;9.93;2.45;;;;;;;-144.51;100.00;69251.94;5113508;28;20047;-60
2021/09/30 05:42:24;;;;;;;3.58;1.58;;;;;;;-144.51;100.00;69251.94;5113424;28;20039;-60
2021/09/30 05:45:15;;;;;;;5.18;2.95;;;;;;;-144.51;100.00;69251.94;5120090;28;20043;-61
2021/09/30 05:48:00;;;;;;;4.07;1.75;;;;;;;-144.51;100.00;69251.94;5116385;28;20039;-60
2021/09/30 05:50:45;;;;;;;3.05;1.50;;;;;;;-144.51;100.00;69251.94;5119318;28;20039;-61
2021/09/30 05:53:59;;;;;;;2.95;1.48;;;;;;;-144.51;100.00;69251.94;5063634;28;20040;-60
2021/09/30 05:56:54;;;;;;;;;;;;;;;-144.51;100.00;69251.94;5120162;28;20051;-61
2021/09/30 05:59:40;;;;;;;10.00;2.45;;;;;;;-144.51;100.00;69251.94;5113379;28;19911;-61
2021/09/30 06:14:10;;;;;;;5.05;2.05;;;;;;;-144.51;100.00;69251.94;5099995;28;20047;-61
2021/09/30 06:16:55;;;;;;;20.33;3.20;;;;;;;-144.51;100.00;69251.94;5108094;28;20043;-60
2021/09/30 06:19:40;;;;;;;14.65;2.63;;;;;;;-144.51;100.00;69251.94;5106886;28;20048;-61
2021/09/30 06:22:26;;;;;;;38.67;5.57;;;;;;;-144.51;100.00;69251.94;5098588;28;20036;-60
2021/09/30 06:25:11;;;;;;;22.08;2.95;;;;;;;-144.51;100.00;69251.94;5108748;28;20040;-60
2021/09/30 06:27:57;;;;;;;17.48;4.03;;;;;;;-144.51;100.00;69251.94;5115799;28;20043;-61
2021/09/30 06:30:42;;;;;;;17.95;4.55;;;;;;;-144.51;100.00;69251.94;5113347;28;20047;-60
2021/09/30 06:34:03;;;;;;;30.15;4.35;;;;;;;-144.51;100.00;69251.94;5087644;28;20040;-61
2021/09/30 06:36:59;;;;;;;12.23;2.90;;;;;;;-144.51;100.00;69251.94;5113465;28;20035;-62
2021/09/30 06:39:44;;;;;;;24.25;3.20;;;;;;;-144.51;100.00;69251.94;5110679;28;20047;-62
2021/09/30 06:42:29;;;;;;;;;;;;;;;-144.51;100.00;69251.94;5118124;28;20039;-61
2021/09/30 06:45:13;;;;;;;10.50;2.50;;;;;;;-144.51;100.00;69251.94;5117307;28;19912;-60
2021/09/30 06:47:58;;;;;;;;;;;;;;;-144.51;100.00;69251.94;5113036;28;20035;-61
2021/09/30 06:50:49;;;;;;;8.02;1.30;;;;;;;-144.51;100.00;69251.94;5116676;28;19920;-61
2021/09/30 06:53:40;;;;;;;3.83;1.67;;;;;;;-144.51;100.00;69251.94;5114248;28;20043;-61
2021/09/30 06:56:29;;;;;;;8.88;2.42;;;;;;;-144.51;100.00;69251.94;5118988;28;20044;-62
2021/09/30 06:59:19;;;;;;;15.27;2.00;;;;;;;-144.51;100.00;69251.94;5114503;28;20488;-61
2021/09/30 07:02:43;;;;;;;13.20;2.22;;;;;;;-144.51;100.00;69251.94;5058704;28;20040;-61
2021/09/30 07:06:06;;;;;;;6.57;1.60;;;;;;;-144.51;100.00;69251.94;5051904;28;20404;-63
2021/09/30 07:08:51;;;;;;;6.80;2.13;;;;;;;-144.51;100.00;69251.94;5117670;28;20495;-61
2021/09/30 07:11:36;;;;;;;8.75;2.10;;;;;;;-144.51;100.00;69251.94;5115427;28;20414;-61
2021/09/30 07:14:21;;;;;;;7.50;1.45;;;;;;;-144.51;100.00;69251.94;5114687;28;20032;-62
2021/09/30 07:17:07;;;;;;;7.75;1.98;;;;;;;-144.51;100.00;69251.94;5116601;28;20039;-61
2021/09/30 07:19:53;;;;;;;5.78;1.70;;;;;;;-144.51;100.00;69251.94;5121395;28;20040;-61
2021/09/30 07:22:39;;;;;;;3.55;1.63;;;;;;;-144.51;100.00;69251.94;5117577;28;20047;-66
2021/09/30 07:25:25;;;;;;;16.23;2.42;;;;;;;-144.51;100.00;69251.94;5116217;28;20043;-62
2021/09/30 07:28:10;;;;;;;16.73;2.70;;;;;;;-144.51;100.00;69251.94;5121118;28;20081;-61
2021/09/30 07:30:54;;;;;;;;;;;;;;;-144.51;100.00;69251.94;5123871;28;20031;-61
2021/09/30 07:33:39;;;;;;;8.48;3.85;;;;;;;-144.51;100.00;69251.94;5117574;28;19916;-62
2021/09/30 07:36:24;;;;;;;8.40;2.88;;;;;;;-144.51;100.00;69251.94;5120484;28;20265;-62
2021/09/30 07:39:10;;;;;;;14.45;2.92;;;;;;;-144.51;100.00;69251.94;5117501;28;20055;-62
2021/09/30 07:41:56;;;;;;;11.88;3.17;;;;;;;-144.51;100.00;69251.94;5117534;28;20044;-62
2021/09/30 07:44:41;;;;;;;9.95;2.88;;;;;;;-144.51;100.00;69251.94;5119551;28;20048;-62
2021/09/30 07:47:27;;;;;;;6.15;2.92;;;;;;;-144.51;100.00;69251.94;5118437;28;20486;-62
2021/09/30 07:50:11;;;;;;;9.38;2.72;;;;;;;-144.51;100.00;69251.94;5117522;28;20044;-62
2021/09/30 07:52:57;;;;;;;4.47;2.42;;;;;;;-144.51;100.00;69251.94;5118834;28;20040;-62
2021/09/30 07:55:43;;;;;;;5.75;2.80;;;;;;;-144.51;100.00;69251.94;5120840;28;20047;-62
2021/09/30 07:58:28;;;;;;;5.22;2.65;;;;;;;-144.51;100.00;69251.94;5116245;28;20044;-62
2021/09/30 08:01:13;;;;;;;12.45;2.70;;;;;;;-144.51;100.00;69251.94;5115437;28;20051;-62
2021/09/30 08:03:59;;;;;;;7.30;2.47;;;;;;;-144.51;100.00;69251.94;5117029;28;20036;-62
2021/09/30 08:06:44;;;;;;;5.03;2.33;;;;;;;-144.51;100.00;69251.94;5121106;28;20043;-62
2021/09/30 08:09:29;;;;;;;7.43;2.45;;;;;;;-144.51;100.00;69251.94;5115806;28;20031;-62
2021/09/30 08:12:14;;;;;;;7.50;2.60;;;;;;;-144.51;100.00;69251.94;5115547;28;20036;-62
2021/09/30 08:14:59;;;;;;;9.98;2.53;;;;;;;-144.51;100.00;69251.94;5121598;28;20039;-61
2021/09/30 08:17:44;;;;;;;6.80;2.60;;;;;;;-144.51;100.00;69251.94;5113763;28;20035;-62
2021/09/30 08:20:30;;;;;;;5.70;2.20;;;;;;;-144.51;100.00;69251.94;5117894;28;20035;-62
2021/09/30 08:23:15;;;;;;;7.13;2.75;;;;;;;-144.51;100.00;69251.94;5116672;28;20028;-62
2021/09/30 08:25:59;;;;;;;5.45;2.08;;;;;;;-144.51;100.00;69251.94;5120429;28;20035;-62
2021/09/30 08:28:48;;;;;;;3.75;2.00;;;;;;;-144.51;100.00;69251.94;5118365;28;20415;-62
2021/09/30 08:31:33;;;;;;;3.63;1.80;;;;;;;-144.51;100.00;69251.94;5115945;28;20031;-61
2021/09/30 08:34:17;;;;;;;6.30;1.70;;;;;;;-144.51;100.00;69251.94;5118088;28;20039;-62
2021/09/30 08:37:02;;;;;;;2.08;1.65;;;;;;;-144.51;100.00;69251.94;5116863;28;20036;-62
2021/09/30 08:39:47;;;;;;;2.35;1.38;;;;;;;-144.51;100.00;69251.94;5114123;28;20419;-62
2021/09/30 08:42:32;;;;;;;3.50;1.50;;;;;;;-144.51;100.00;69251.94;5120546;28;20039;-61
2021/09/30 08:45:20;;;;;;;;;;;;;;;-144.51;100.00;69251.94;5122613;28;20032;-62
2021/09/30 08:48:07;;;;;;;4.32;2.78;;;;;;;-144.51;100.00;69251.94;5107054;28;20367;-62
2021/09/30 08:50:51;;;;;;;1.30;0.80;;;;;;;-144.51;100.00;69251.94;5114081;28;20044;-62
2021/09/30 08:53:37;;;;;;;5.95;0.98;;;;;;;-144.51;100.00;69251.94;5118419;28;20035;-62
2021/09/30 08:56:22;;;;;;;2.40;1.27;;;;;;;-144.51;100.00;69251.94;5116572;28;20483;-62
2021/09/30 08:59:14;;;;;;;3.45;1.15;;;;;;;-144.51;100.00;69251.94;5115772;28;20511;-62
2021/09/30 09:02:11;;;;;;;2.30;0.98;;;;;;;-144.51;100.00;69251.94;5119271;28;20035;-62
2021/09/30 09:04:59;;;;;;;1.15;0.65;;;;;;;-144.51;100.00;69251.94;5112876;28;20487;-62
2021/09/30 09:07:55;;;;;;;1.00;0.80;;;;;;;-144.51;100.00;69251.94;5119184;28;20081;-62
2021/09/30 09:10:42;;;;;;;5.03;1.20;;;;;;;-144.51;100.00;69251.94;5115014;28;20055;-61
2021/09/30 09:13:28;;;;;;;0.55;0.50;;;;;;;-144.51;100.00;69251.94;5103902;27;20044;-62
2021/09/30 09:16:13;;;;;;;4.15;0.80;;;;;;;-144.51;100.00;69251.94;5110691;28;20043;-62
2021/09/30 09:18:58;;;;;;;3.63;0.85;;;;;;;-144.51;100.00;69251.94;5108380;28;20036;-62
2021/09/30 09:21:43;;;;;;;2.20;0.50;;;;;;;-144.51;100.00;69251.94;5119030;28;20048;-62
2021/09/30 09:24:27;;;;;;;17.42;2.00;;;;;;;-144.51;100.00;69251.94;5116887;28;20491;-62
2021/09/30 09:27:13;;;;;;;18.63;3.75;;;;;;;-144.51;100.00;69251.94;5109661;28;20039;-62
2021/09/30 09:29:57;;;;;;;1.20;0.90;;;;;;;-144.51;100.00;69251.94;5108704;27;20035;-61
2021/09/30 09:33:06;;;;;;;2.63;1.23;;;;;;;-144.51;100.00;69251.94;5119582;28;20043;-62
2021/09/30 09:36:02;;;;;;;1.77;0.73;;;;;;;-144.51;100.00;69251.94;5118942;28;20035;-62
2021/09/30 09:38:52;;;;;;;9.07;1.02;;;;;;;-144.51;100.00;69251.94;5115849;28;20419;-62
2021/09/30 09:41:36;;;;;;;0.73;0.50;;;;;;;-144.51;100.00;69251.94;5110378;28;20040;-62
2021/09/30 09:44:22;;;;;;;2.10;0.63;;;;;;;-144.51;100.00;69251.94;5112809;28;20475;-62
2021/09/30 09:47:22;;;;;;;2.00;0.95;;;;;;;-144.51;100.00;69251.94;5119590;28;20035;-61
2021/09/30 09:50:11;;;;;;;1.00;0.70;;;;;;;-144.51;100.00;69251.94;5115576;28;20487;-61
2021/09/30 09:52:59;;;;;;;0.88;0.60;;;;;;;-144.51;100.00;69251.94;5110912;28;20491;-61
2021/09/30 09:55:44;;;;;;;1.92;0.63;;;;;;;-144.51;100.00;69251.94;5109519;28;20047;-60
2021/09/30 09:58:51;;;;;;;2.95;0.60;;;;;;;-144.51;100.00;69251.94;5102921;27;20040;-61
2021/09/30 10:01:44;;;;;;;1.60;0.55;;;;;;;-144.51;100.00;69251.94;5113735;28;20032;-60
2021/09/30 10:04:30;;;;;;;5.13;0.68;;;;;;;-144.51;100.00;69251.94;5119217;28;20039;-60
2021/09/30 10:07:17;;;;;;;1.95;0.65;;;;;;;-144.51;100.00;69251.94;5115607;28;20044;-61
2021/09/30 10:10:02;;;;;;;2.30;0.75;;;;;;;-144.51;100.00;69251.94;5100734;28;20073;-62
2021/09/30 10:12:48;;;;;;;1.58;0.85;;;;;;;-144.51;100.00;69251.94;5118924;28;20048;-62
2021/09/30 10:15:34;;;;;;;2.45;0.65;;;;;;;-144.51;100.00;69251.94;5112467;28;20039;-62
2021/09/30 10:18:24;;;;;;;2.88;0.52;;;;;;;-144.51;100.00;69251.94;5108494;28;20380;-61
2021/09/30 10:21:09;;;;;;;2.10;0.45;;;;;;;-144.51;100.00;69251.94;5109516;27;20043;-61
2021/09/30 10:23:57;;;;;;;1.88;0.65;;;;;;;-144.51;100.00;69251.94;5116421;27;20031;-62
2021/09/30 10:26:45;;;;;;;1.45;0.50;;;;;;;-144.51;100.00;69251.94;5111663;28;20048;-61
2021/09/30 10:29:45;;;;;;;0.73;0.40;;;;;;;-144.51;100.00;69251.94;5113820;28;20414;-61
2021/09/30 10:32:49;;;;;;;3.00;0.73;;;;;;;-144.51;100.00;69251.94;5116082;27;20052;-60
2021/09/30 10:35:37;;;;;;;7.13;0.65;;;;;;;-144.51;100.00;69251.94;5115064;28;20040;-61
2021/09/30 10:38:31;;;;;;;1.77;0.75;;;;;;;-144.51;100.00;69251.94;5104875;28;20036;-62
2021/09/30 10:41:16;;;;;;;1.77;0.68;;;;;;;-144.51;100.00;69251.94;5110054;28;20040;-60
2021/09/30 10:44:24;;;;;;;1.02;0.82;;;;;;;-144.51;100.00;69251.94;5113645;28;20039;-60
2021/09/30 10:47:09;;;;;;;8.68;1.10;;;;;;;-144.51;100.00;69251.94;5118096;28;20044;-61
2021/09/30 10:49:58;;;;;;;3.25;1.08;;;;;;;-144.51;100.00;69251.94;5113419;28;20044;-60
2021/09/30 10:52:53;;;;;;;1.10;0.52;;;;;;;-144.51;100.00;69251.94;5115255;28;20059;-60
2021/09/30 10:55:38;;;;;;;4.72;0.47;;;;;;;-144.51;100.00;69251.94;5112693;28;20028;-60
2021/09/30 10:58:24;;;;;;;2.92;1.00;;;;;;;-144.51;100.00;69251.94;5112532;28;20498;-61
2021/09/30 11:01:13;;;;;;;4.65;0.40;;;;;;;-144.51;100.00;69251.94;5110244;28;20035;-60
2021/09/30 11:03:59;;;;;;;9.43;0.70;;;;;;;-144.51;100.00;69251.94;5115002;28;20036;-62
2021/09/30 11:07:06;;;;;;;1.13;0.40;;;;;;;-144.51;100.00;69251.94;5103125;27;20035;-61
2021/09/30 11:10:25;;;;;;;0.60;0.38;;;;;;;-144.51;100.00;69251.94;5109490;28;20043;-61
2021/09/30 11:13:23;;;;;;;4.30;0.40;;;;;;;-144.51;100.00;69251.94;5117054;28;20039;-61
2021/09/30 11:16:14;;;;;;;1.15;0.88;;;;;;;-144.51;100.00;69251.94;5116842;28;20043;-61
2021/09/30 11:19:00;;;;;;;1.80;0.50;;;;;;;-144.51;100.00;69251.94;5112628;28;20035;-61
2021/09/30 11:21:46;;;;;;;0.70;0.40;;;;;;;-144.51;100.00;69251.94;5110026;28;20047;-62
2021/09/30 11:24:33;;;;;;;3.70;0.60;;;;;;;-144.51;100.00;69251.94;5116099;28;20027;-62
2021/09/30 11:27:20;;;;;;;2.80;0.60;;;;;;;-144.51;100.00;69251.94;5112980;28;20415;-61
2021/09/30 11:30:17;;;;;;;1.83;0.68;;;;;;;-144.51;100.00;69251.94;5114336;28;20040;-62
2021/09/30 11:33:07;;;;;;;0.57;0.40;;;;;;;-144.51;100.00;69251.94;5117706;28;20036;-61
2021/09/30 11:35:52;;;;;;;0.30;0.30;;;;;;;-144.51;100.00;69251.94;5115193;28;20043;-61
2021/09/30 11:38:38;;;;;;;0.45;0.40;;;;;;;-144.51;100.00;69251.94;5111010;28;20036;-61
2021/09/30 11:41:27;;;;;;;2.35;0.80;;;;;;;-144.51;100.00;69251.94;5115787;28;20407;-62
2021/09/30 11:44:18;;;;;;;3.92;0.70;;;;;;;-144.51;100.00;69251.94;5114972;28;20032;-61
2021/09/30 11:47:03;;;;;;;0.50;0.20;;;;;;;-144.51;100.00;69251.94;5111618;28;20027;-61
2021/09/30 11:49:47;;;;;;;1.85;0.60;;;;;;;-144.51;100.00;69251.94;5106898;28;20047;-60
2021/09/30 11:52:32;;;;;;;0.80;0.40;;;;;;;-144.51;100.00;69251.94;5122888;28;20031;-61
2021/09/30 11:55:18;;;;;;;1.00;0.38;;;;;;;-144.51;100.00;69251.94;5117166;28;20043;-61
2021/09/30 11:58:04;;;;;;;1.17;0.30;;;;;;;-144.51;100.00;69251.94;5112341;28;20039;-61
2021/09/30 12:00:49;;;;;;;1.05;0.70;;;;;;;-144.51;100.00;69251.94;5105378;28;20418;-60
2021/09/30 12:03:42;;;;;;;0.22;0.22;;;;;;;-144.51;100.00;69251.94;5115141;28;20402;-60
2021/09/30 12:06:41;;;;;;;1.27;0.65;;;;;;;-144.51;100.00;69251.94;5112654;28;20039;-60
2021/09/30 12:09:26;;;;;;;2.13;0.75;;;;;;;-144.51;100.00;69251.94;5112741;28;20053;-60
2021/09/30 12:12:11;;;;;;;1.13;0.63;;;;;;;-144.51;100.00;69251.94;5114062;28;20035;-61
2021/09/30 12:14:57;;;;;;;1.27;0.40;;;;;;;-144.51;100.00;69251.94;5114072;28;20036;-61
2021/09/30 12:17:42;;;;;;;4.50;0.38;;;;;;;-144.51;100.00;69251.94;5113761;28;20040;-60
2021/09/30 12:20:28;;;;;;;0.85;0.50;;;;;;;-144.51;100.00;69251.94;5121136;28;20035;-61
2021/09/30 12:23:15;;;;;;;2.20;0.63;;;;;;;-144.51;100.00;69251.94;5119545;28;20043;-60
2021/09/30 12:26:00;;;;;;;1.70;0.60;;;;;;;-144.51;100.00;69251.94;5117981;28;20047;-60
2021/09/30 12:28:45;;;;;;;13.52;0.60;;;;;;;-144.51;100.00;69251.94;5116908;28;20048;-60
2021/09/30 12:31:30;;;;;;;1.27;0.40;;;;;;;-144.51;100.00;69251.94;5117455;28;20043;-61
2021/09/30 12:34:25;;;;;;;3.85;0.65;;;;;;;-144.51;100.00;69251.94;5116290;28;20044;-60
2021/09/30 12:37:10;;;;;;;0.47;0.25;;;;;;;-144.51;100.00;69251.94;5101096;28;20495;-61
2021/09/30 12:40:11;;;;;;;1.15;0.63;;;;;;;-144.51;100.00;69251.94;5112420;28;20044;-60
2021/09/30 12:43:12;;;;;;;18.95;3.72;;;;;;;-144.51;100.00;69251.94;5111188;28;20036;-60
2021/09/30 12:46:06;;;;;;;29.77;6.03;;;;;;;-144.51;100.00;69251.94;5112391;28;20036;-61
2021/09/30 12:48:51;;;;;;;47.65;10.23;;;;;;;-144.51;100.00;69251.94;5114648;28;20032;-60
2021/09/30 12:51:36;;;;;;;11.23;2.53;;;;;;;-144.51;100.00;69251.94;5116271;28;20047;-60
2021/09/30 12:54:27;;;;;;;14.55;3.92;;;;;;;-144.51;100.00;69251.94;5106678;28;20509;-60
2021/09/30 12:57:12;;;;;;;32.58;6.53;;;;;;;-144.51;100.00;69251.94;5117949;28;20036;-60
2021/09/30 13:00:10;;;;;;;33.45;7.50;;;;;;;-144.51;100.00;69251.94;5119166;28;20028;-60
2021/09/30 13:03:11;;;;;;;9.00;1.85;;;;;;;-144.51;100.00;69251.94;5120467;28;20433;-60
2021/09/30 13:05:56;;;;;;;7.00;1.67;;;;;;;-144.51;100.00;69251.94;5113561;28;20027;-60
2021/09/30 13:08:43;;;;;;;5.30;1.02;;;;;;;-144.51;100.00;69251.94;5112962;28;20043;-60
2021/09/30 13:11:36;;;;;;;6.53;2.03;;;;;;;-144.51;100.00;69251.94;5120602;28;20498;-60
2021/09/30 13:14:23;;;;;;;10.60;0.98;;;;;;;-144.51;100.00;69251.94;5117389;28;20039;-60
2021/09/30 13:17:27;;;;;;;6.53;1.40;;;;;;;-144.51;100.00;69251.94;5116694;28;20472;-60
2021/09/30 13:20:14;;;;;;;9.20;2.00;;;;;;;-144.51;100.00;69251.94;5120057;28;20494;-60
2021/09/30 13:22:58;;;;;;;2.13;0.57;;;;;;;-144.51;100.00;69251.94;5118874;28;20047;-60
2021/09/30 13:25:43;;;;;;;5.13;1.63;;;;;;;-144.51;100.00;69251.94;5115196;28;20035;-60
2021/09/30 13:28:29;;;;;;;1.85;0.50;;;;;;;-144.51;100.00;69251.94;5111141;28;20039;-60
2021/09/30 13:31:14;;;;;;;2.50;0.70;;;;;;;-144.51;100.00;69251.94;5118500;28;20044;-60
2021/09/30 13:33:59;;;;;;;1.88;0.50;;;;;;;-144.51;100.00;69251.94;5116097;28;20035;-60
2021/09/30 13:36:43;;;;;;;0.93;0.50;;;;;;;-144.51;100.00;69251.94;5120446;28;20047;-60
2021/09/30 13:39:29;;;;;;;1.58;0.50;;;;;;;-144.51;100.00;69251.94;5114430;28;20039;-60
2021/09/30 13:42:14;;;;;;;3.05;0.65;;;;;;;-144.51;100.00;69251.94;5116611;28;20040;-61
2021/09/30 13:44:59;;;;;;;1.25;0.82;;;;;;;-144.51;100.00;69251.94;5116025;28;20027;-60
2021/09/30 13:47:44;;;;;;;4.60;0.52;;;;;;;-144.51;100.00;69251.94;5115871;28;20407;-60
2021/09/30 13:50:29;;;;;;;2.95;0.65;;;;;;;-144.51;100.00;69251.94;5114777;28;20487;-60
2021/09/30 13:53:21;;;;;;;1.45;0.40;;;;;;;-144.51;100.00;69251.94;5119769;28;20393;-60
2021/09/30 13:56:06;;;;;;;2.25;0.90;;;;;;;-144.51;100.00;69251.94;5115982;28;20040;-60
2021/09/30 13:58:51;;;;;;;0.90;0.50;;;;;;;-144.51;100.00;69251.94;5115308;28;20036;-60
2021/09/30 14:01:36;;;;;;;2.08;0.52;;;;;;;-144.51;100.00;69251.94;5119254;28;20043;-60
2021/09/30 14:04:21;;;;;;;0.50;0.43;;;;;;;-144.51;100.00;69251.94;5117649;28;20483;-60
2021/09/30 14:07:08;;;;;;;2.88;0.68;;;;;;;-144.51;100.00;69251.94;5116416;28;20035;-60
2021/09/30 14:09:53;;;;;;;0.90;0.60;;;;;;;-144.51;100.00;69251.94;5116487;28;20039;-60
2021/09/30 14:12:38;;;;;;;6.05;0.65;;;;;;;-144.51;100.00;69251.94;5111491;28;20036;-60
2021/09/30 14:15:23;;;;;;;0.75;0.43;;;;;;;-144.51;100.00;69251.94;5115534;28;20043;-60
2021/09/30 14:18:09;;;;;;;0.63;0.40;;;;;;;-144.51;100.00;69251.94;5107253;28;20039;-60
2021/09/30 14:20:54;;;;;;;2.20;0.70;;;;;;;-144.51;100.00;69251.94;5109196;28;20411;-60
2021/09/30 14:23:39;;;;;;;4.13;0.65;;;;;;;-144.51;100.00;69251.94;5112940;28;20403;-60
2021/09/30 14:26:24;;;;;;;5.65;0.80;;;;;;;-144.51;100.00;69251.94;5109635;28;20425;-60
2021/09/30 14:29:09;;;;;;;2.10;0.40;;;;;;;-144.51;100.00;69251.94;5114119;28;20510;-60
2021/09/30 14:31:54;;;;;;;1.23;0.45;;;;;;;-144.51;100.00;69251.94;5118555;28;20065;-60
2021/09/30 14:34:40;;;;;;;0.60;0.50;;;;;;;-144.51;100.00;69251.94;5120118;28;20036;-60
2021/09/30 14:37:26;;;;;;;4.18;0.70;;;;;;;-144.51;100.00;69251.94;5113141;28;20472;-60
2021/09/30 14:40:11;;;;;;;1.35;0.70;;;;;;;-144.51;100.00;69251.94;5118657;28;20399;-61
2021/09/30 14:42:56;;;;;;;0.68;0.55;;;;;;;-144.51;100.00;69251.94;5114151;28;20414;-60
2021/09/30 14:45:41;;;;;;;1.00;0.40;;;;;;;-144.51;100.00;69251.94;5120109;28;20047;-60
2021/09/30 14:48:26;;;;;;;1.65;0.50;;;;;;;-144.51;100.00;69251.94;5112994;28;20044;-60
2021/09/30 14:51:13;;;;;;;0.63;0.25;;;;;;;-144.51;100.00;69251.94;5110665;28;20438;-60
2021/09/30 14:53:57;;;;;;;0.90;0.40;;;;;;;-144.51;100.00;69251.94;5112774;28;20039;-60
2021/09/30 14:56:42;;;;;;;0.82;0.40;;;;;;;-144.51;100.00;69251.94;5111006;28;20039;-60
2021/09/30 14:59:27;;;;;;;4.78;0.43;;;;;;;-144.51;100.00;69251.94;5113673;28;20035;-60
2021/09/30 15:02:13;;;;;;;0.60;0.32;;;;;;;-144.51;100.00;69251.94;5115131;28;20036;-60
2021/09/30 15:04:58;;;;;;;3.55;0.50;;;;;;;-144.51;100.00;69251.94;5105580;28;20402;-60
2021/09/30 15:07:43;;;;;;;1.35;0.50;;;;;;;-144.51;100.00;69251.94;5113199;27;20035;-60
2021/09/30 15:10:30;;;;;;;0.82;0.40;;;;;;;-144.51;100.00;69251.94;5116879;28;20043;-60
2021/09/30 15:13:15;;;;;;;2.20;0.43;;;;;;;-144.51;100.00;69251.94;5113347;27;20031;-60
2021/09/30 15:16:02;;;;;;;1.85;0.70;;;;;;;-144.51;100.00;69251.94;5114617;28;20044;-60
2021/09/30 15:21:33;;;;;;;3.40;0.55;;;;;;;-144.51;100.00;69251.94;5112056;28;20507;-60
2021/09/30 15:24:18;;;;;;;1.30;0.50;;;;;;;-144.51;100.00;69251.94;5116643;28;20031;-60
2021/09/30 15:27:03;;;;;;;3.05;0.52;;;;;;;-144.51;100.00;69251.94;5120761;28;20035;-61
2021/09/30 15:29:47;;;;;;;5.00;0.47;;;;;;;-144.51;100.00;69251.94;5115673;28;20035;-61
2021/09/30 15:32:34;;;;;;;2.30;0.70;;;;;;;-144.51;100.00;69251.94;5118445;28;20044;-61
2021/09/30 15:35:19;;;;;;;0.80;0.50;;;;;;;-144.51;100.00;69251.94;5114319;28;20032;-61
2021/09/30 15:38:04;;;;;;;4.30;0.60;;;;;;;-144.51;100.00;69251.94;5116981;28;20040;-61
2021/09/30 15:40:49;;;;;;;28.20;4.38;;;;;;;-144.51;100.00;69251.94;5121601;28;20036;-61